createdAt,value
2023-06-14T00:01:00.828Z,3.40
2023-06-14T00:03:27.703Z,2.58
2023-06-14T00:05:54.676Z,3.03
2023-06-14T00:08:21.578Z,3.10
2023-06-14T00:10:48.635Z,2.97
2023-06-14T00:13:16.805Z,2.90
2023-06-14T00:15:43.583Z,2.80
2023-06-14T00:18:10.484Z,2.80
2023-06-14T00:20:37.277Z,3.10
2023-06-14T00:23:04.119Z,2.83
2023-06-14T00:25:31.052Z,2.90
2023-06-14T00:27:59.810Z,3.47
2023-06-14T00:30:28.290Z,2.83
2023-06-14T00:32:55.218Z,2.92
2023-06-14T00:35:22.098Z,3.28
2023-06-14T00:37:48.874Z,3.00
2023-06-14T00:40:15.988Z,2.83
2023-06-14T00:42:43.051Z,3.20
2023-06-14T00:45:11.153Z,2.78
2023-06-14T00:47:42.195Z,3.00
2023-06-14T00:50:10.666Z,3.10
2023-06-14T00:52:37.498Z,3.38
2023-06-14T00:55:05.016Z,3.10
2023-06-14T00:57:31.973Z,3.20
2023-06-14T00:59:58.861Z,2.88
2023-06-14T01:02:25.824Z,2.67
2023-06-14T01:04:54.570Z,2.75
2023-06-14T01:07:30.767Z,3.40
2023-06-14T01:10:09.415Z,2.97
2023-06-14T01:12:45.746Z,3.30
2023-06-14T01:15:14.378Z,3.10
2023-06-14T01:17:42.556Z,3.05
2023-06-14T01:20:12.485Z,2.75
2023-06-14T01:22:45.866Z,2.95
2023-06-14T01:25:12.779Z,2.90
2023-06-14T01:27:39.667Z,2.75
2023-06-14T01:30:09.389Z,2.85
2023-06-14T01:32:36.760Z,2.90
2023-06-14T01:35:04.310Z,2.88
2023-06-14T01:37:31.654Z,3.50
2023-06-14T01:40:00.202Z,3.03
2023-06-14T01:42:27.350Z,2.70
2023-06-14T01:44:56.010Z,2.90
2023-06-14T01:47:23.195Z,2.85
2023-06-14T01:49:49.988Z,2.70
2023-06-14T01:52:16.872Z,2.50
2023-06-14T01:54:43.701Z,2.95
2023-06-14T01:57:12.523Z,3.00
2023-06-14T01:59:39.356Z,2.95
2023-06-14T02:02:06.411Z,3.10
2023-06-14T02:04:33.314Z,2.95
2023-06-14T02:07:00.218Z,3.17
2023-06-14T02:09:27.169Z,3.03
2023-06-14T02:11:53.947Z,2.75
2023-06-14T02:14:22.107Z,2.97
2023-06-14T02:16:48.935Z,2.70
2023-06-14T02:19:16.124Z,3.13
2023-06-14T02:21:43.028Z,2.83
2023-06-14T02:24:09.878Z,2.80
2023-06-14T02:26:36.820Z,2.88
2023-06-14T02:29:03.612Z,2.42
2023-06-14T02:31:31.938Z,2.67
2023-06-14T02:33:58.800Z,2.75
2023-06-14T02:36:25.576Z,3.35
2023-06-14T02:38:52.369Z,2.90
2023-06-14T02:41:19.212Z,3.20
2023-06-14T02:43:46.037Z,2.60
2023-06-14T02:46:12.894Z,2.92
2023-06-14T02:48:41.178Z,2.90
2023-06-14T02:51:08.067Z,2.60
2023-06-14T02:53:34.978Z,2.95
2023-06-14T02:56:01.786Z,2.97
2023-06-14T02:58:28.646Z,2.90
2023-06-14T03:00:55.437Z,3.15
2023-06-14T03:03:22.524Z,3.38
2023-06-14T03:05:51.321Z,2.90
2023-06-14T03:08:18.522Z,2.78
2023-06-14T03:10:45.502Z,2.80
2023-06-14T03:13:12.291Z,3.08
2023-06-14T03:15:39.088Z,2.65
2023-06-14T03:18:06.099Z,2.80
2023-06-14T03:20:32.944Z,2.83
2023-06-14T03:23:01.539Z,2.83
2023-06-14T03:25:28.301Z,3.08
2023-06-14T03:27:55.109Z,3.20
2023-06-14T03:30:22.120Z,3.08
2023-06-14T03:32:49.177Z,2.97
2023-06-14T03:35:16.242Z,3.15
2023-06-14T03:37:43.101Z,2.90
2023-06-14T03:40:13.877Z,3.55
2023-06-14T03:42:40.932Z,3.40
2023-06-14T03:45:08.683Z,2.90
2023-06-14T03:47:36.178Z,3.50
2023-06-14T03:50:03.208Z,4.68
2023-06-14T03:52:30.252Z,3.22
2023-06-14T03:55:55.584Z,3.38
2023-06-14T03:57:45.316Z,3.58
2023-06-14T04:00:13.340Z,3.22
2023-06-14T04:02:40.218Z,3.40
2023-06-14T04:05:07.566Z,3.25
2023-06-14T04:07:34.385Z,3.25
2023-06-14T04:10:01.254Z,3.72
2023-06-14T04:12:28.107Z,3.30
2023-06-14T04:15:00.122Z,3.33
2023-06-14T04:17:31.785Z,3.67
2023-06-14T04:19:58.591Z,3.20
2023-06-14T04:22:25.402Z,3.58
2023-06-14T04:25:00.729Z,3.83
2023-06-14T04:27:31.921Z,3.22
2023-06-14T04:30:00.166Z,3.53
2023-06-14T04:32:27.712Z,3.30
2023-06-14T04:34:55.183Z,3.50
2023-06-14T04:37:22.125Z,3.15
2023-06-14T04:39:49.085Z,3.63
2023-06-14T04:42:16.168Z,3.17
2023-06-14T04:44:43.473Z,3.25
2023-06-14T04:47:11.795Z,2.92
2023-06-14T04:49:38.719Z,3.70
2023-06-14T04:52:06.250Z,3.40
2023-06-14T04:54:33.216Z,3.00
2023-06-14T04:57:00.114Z,3.28
2023-06-14T04:59:26.956Z,3.42
2023-06-14T05:01:53.829Z,3.15
2023-06-14T05:04:22.160Z,3.35
2023-06-14T05:06:49.090Z,3.35
2023-06-14T05:09:16.422Z,3.33
2023-06-14T05:11:43.361Z,3.33
2023-06-14T05:14:10.291Z,3.63
2023-06-14T05:16:37.153Z,3.25
2023-06-14T05:19:04.082Z,3.55
2023-06-14T05:21:32.967Z,3.53
2023-06-14T05:24:01.506Z,2.70
2023-06-14T05:26:28.486Z,3.33
2023-06-14T05:28:55.678Z,3.58
2023-06-14T05:31:22.524Z,3.25
2023-06-14T05:33:49.397Z,3.10
2023-06-14T05:36:16.364Z,3.22
2023-06-14T05:38:44.634Z,3.03
2023-06-14T05:41:11.692Z,2.67
2023-06-14T05:43:38.575Z,3.33
2023-06-14T05:46:05.722Z,3.13
2023-06-14T05:48:34.920Z,4.43
2023-06-14T05:51:01.745Z,3.55
2023-06-14T05:53:28.597Z,3.10
2023-06-14T05:55:56.815Z,3.05
2023-06-14T05:58:23.679Z,3.60
2023-06-14T06:00:50.483Z,3.08
2023-06-14T06:03:17.425Z,3.22
2023-06-14T06:05:44.302Z,3.15
2023-06-14T06:08:11.162Z,3.03
2023-06-14T06:10:38.196Z,3.33
2023-06-14T06:13:06.405Z,3.13
2023-06-14T06:15:33.224Z,3.28
2023-06-14T06:18:00.210Z,3.60
2023-06-14T06:20:27.140Z,3.10
2023-06-14T06:22:54.006Z,3.67
2023-06-14T06:25:20.912Z,2.80
2023-06-14T06:27:47.705Z,3.00
2023-06-14T06:30:16.907Z,3.00
2023-06-14T06:32:43.989Z,3.80
2023-06-14T06:35:10.960Z,3.63
2023-06-14T06:37:37.957Z,3.08
2023-06-14T06:40:05.605Z,3.08
2023-06-14T06:42:32.588Z,3.53
2023-06-14T06:44:59.456Z,3.40
2023-06-14T06:47:27.702Z,2.92
2023-06-14T06:49:54.623Z,3.35
2023-06-14T06:52:28.883Z,3.30
2023-06-14T06:54:57.087Z,3.30
2023-06-14T06:57:24.227Z,3.10
2023-06-14T06:59:51.156Z,2.88
2023-06-14T07:02:18.236Z,2.85
2023-06-14T07:04:47.007Z,3.30
2023-06-14T07:07:15.833Z,3.00
2023-06-14T07:09:42.761Z,3.10
2023-06-14T07:12:09.916Z,3.88
2023-06-14T07:14:36.734Z,3.30
2023-06-14T07:17:03.890Z,3.75
2023-06-14T07:19:30.698Z,3.42
2023-06-14T07:21:58.923Z,3.30
2023-06-14T07:24:26.297Z,3.53
2023-06-14T07:26:53.344Z,3.72
2023-06-14T07:29:20.854Z,3.65
2023-06-14T07:31:47.987Z,3.47
2023-06-14T07:34:14.901Z,3.53
2023-06-14T07:36:41.724Z,3.05
2023-06-14T07:39:09.930Z,3.35
2023-06-14T07:41:36.746Z,3.13
2023-06-14T07:44:03.921Z,3.20
2023-06-14T07:46:30.878Z,3.08
2023-06-14T07:48:57.924Z,3.50
2023-06-14T07:51:24.838Z,2.95
2023-06-14T07:53:51.715Z,3.08
2023-06-14T07:56:19.955Z,2.65
2023-06-14T07:58:46.796Z,2.85
2023-06-14T08:01:13.620Z,2.80
2023-06-14T08:03:40.732Z,2.75
2023-06-14T08:06:08.313Z,2.75
2023-06-14T08:08:36.228Z,3.20
2023-06-14T08:11:04.038Z,2.38
2023-06-14T08:13:32.234Z,2.70
2023-06-14T08:15:59.126Z,2.83
2023-06-14T08:18:26.087Z,2.90
2023-06-14T08:20:53.088Z,2.72
2023-06-14T08:23:20.281Z,2.60
2023-06-14T08:25:47.127Z,2.50
2023-06-14T08:28:13.973Z,2.92
2023-06-14T08:30:43.101Z,2.67
2023-06-14T08:33:16.744Z,2.38
2023-06-14T08:35:44.767Z,2.58
2023-06-14T08:38:11.667Z,2.65
2023-06-14T08:40:40.675Z,2.75
2023-06-14T08:43:07.836Z,2.70
2023-06-14T08:45:34.900Z,2.65
2023-06-14T08:48:03.471Z,2.53
2023-06-14T08:50:32.356Z,2.22
2023-06-14T08:53:01.649Z,2.67
2023-06-14T08:55:29.134Z,2.55
2023-06-14T08:57:58.297Z,2.63
2023-06-14T09:00:26.345Z,2.45
2023-06-14T09:02:53.631Z,2.50
2023-06-14T09:05:21.957Z,2.50
2023-06-14T09:07:48.817Z,2.58
2023-06-14T09:10:17.040Z,2.42
2023-06-14T09:12:44.165Z,2.47
2023-06-14T09:15:11.257Z,2.50
2023-06-14T09:17:38.676Z,2.72
2023-06-14T09:20:07.753Z,2.78
2023-06-14T09:22:36.219Z,2.42
2023-06-14T09:25:03.442Z,2.80
2023-06-14T09:27:30.644Z,2.50
2023-06-14T09:29:57.543Z,2.47
2023-06-14T09:32:25.890Z,2.60
2023-06-14T09:34:53.210Z,2.80
2023-06-14T09:37:29.998Z,2.30
2023-06-14T09:39:58.906Z,2.58
2023-06-14T09:42:26.092Z,2.65
2023-06-14T09:44:54.377Z,3.00
2023-06-14T09:47:21.833Z,2.53
2023-06-14T09:49:49.193Z,2.78
2023-06-14T09:52:18.331Z,2.60
2023-06-14T09:54:46.480Z,2.83
2023-06-14T09:57:16.720Z,2.78
2023-06-14T09:59:45.277Z,3.00
2023-06-14T10:02:19.011Z,2.40
2023-06-14T10:04:51.120Z,3.05
2023-06-14T10:07:21.442Z,2.88
2023-06-14T10:09:48.724Z,2.80
2023-06-14T10:12:18.208Z,3.05
2023-06-14T10:14:45.391Z,3.13
2023-06-14T10:17:18.356Z,2.58
2023-06-14T10:19:52.891Z,2.60
2023-06-14T10:22:23.841Z,2.75
2023-06-14T10:24:50.675Z,2.97
2023-06-14T10:27:18.905Z,3.03
2023-06-14T10:30:08.920Z,2.75
2023-06-14T10:32:35.807Z,2.70
2023-06-14T10:35:06.566Z,2.72
2023-06-14T10:37:33.638Z,2.78
2023-06-14T10:40:00.665Z,3.10
2023-06-14T10:42:33.782Z,2.40
2023-06-14T10:45:01.923Z,2.60
2023-06-14T10:47:30.271Z,2.97
2023-06-14T10:49:58.670Z,3.20
2023-06-14T10:52:28.086Z,2.80
2023-06-14T10:55:02.288Z,3.05
2023-06-14T10:57:32.866Z,2.67
2023-06-14T11:00:05.092Z,2.88
2023-06-14T11:02:53.816Z,2.80
2023-06-14T11:05:25.563Z,2.75
2023-06-14T11:08:10.587Z,2.75
2023-06-14T11:10:38.702Z,2.78
2023-06-14T11:13:07.760Z,2.72
2023-06-14T11:15:36.294Z,3.00
2023-06-14T11:18:05.267Z,2.88
2023-06-14T11:20:33.705Z,3.38
2023-06-14T11:23:00.925Z,3.00
2023-06-14T11:25:28.193Z,3.10
2023-06-14T11:27:55.616Z,3.00
2023-06-14T11:30:24.369Z,2.90
2023-06-14T11:32:54.364Z,3.08
2023-06-14T11:35:24.101Z,2.75
2023-06-14T11:37:54.127Z,2.65
2023-06-14T11:40:20.966Z,2.78
2023-06-14T11:42:47.786Z,2.92
2023-06-14T11:45:14.606Z,2.75
2023-06-14T11:47:42.822Z,3.05
2023-06-14T11:50:10.963Z,3.08
2023-06-14T11:52:38.454Z,2.55
2023-06-14T11:55:06.844Z,2.72
2023-06-14T11:57:35.733Z,3.10
2023-06-14T12:00:04.740Z,2.50
2023-06-14T12:02:32.863Z,2.90
2023-06-14T12:05:05.644Z,3.20
2023-06-14T12:07:32.513Z,2.83
2023-06-14T12:10:06.364Z,2.70
2023-06-14T12:12:37.276Z,3.08
2023-06-14T12:15:05.193Z,2.85
2023-06-14T12:17:33.860Z,2.60
2023-06-14T12:20:06.960Z,2.92
2023-06-14T12:22:33.940Z,2.72
2023-06-14T12:25:00.881Z,2.55
2023-06-14T12:27:27.808Z,2.75
2023-06-14T12:30:00.565Z,2.88
2023-06-14T12:32:27.900Z,2.95
2023-06-14T12:34:55.155Z,2.80
2023-06-14T12:37:23.815Z,2.90
2023-06-14T12:39:50.753Z,2.65
2023-06-14T12:42:18.253Z,2.85
2023-06-14T12:44:45.358Z,2.55
2023-06-14T12:47:12.322Z,2.63
2023-06-14T12:49:40.437Z,3.22
2023-06-14T12:52:08.417Z,2.88
2023-06-14T12:54:40.955Z,2.60
2023-06-14T12:57:08.942Z,2.80
2023-06-14T12:59:35.811Z,2.40
2023-06-14T13:02:13.901Z,2.60
2023-06-14T13:04:40.831Z,2.50
2023-06-14T13:07:07.796Z,2.50
2023-06-14T13:09:36.160Z,2.50
2023-06-14T13:12:03.192Z,2.53
2023-06-14T13:14:31.217Z,2.25
2023-06-14T13:16:58.090Z,2.85
2023-06-14T13:19:25.050Z,2.45
2023-06-14T13:21:51.872Z,2.63
2023-06-14T13:24:18.830Z,2.30
2023-06-14T13:26:47.108Z,2.70
2023-06-14T13:29:14.043Z,2.55
2023-06-14T13:31:41.117Z,2.50
2023-06-14T13:34:07.962Z,2.10
2023-06-14T13:36:34.895Z,2.25
2023-06-14T13:39:01.724Z,2.08
2023-06-14T13:41:29.572Z,2.13
2023-06-14T13:43:57.973Z,2.20
2023-06-14T13:46:25.076Z,2.45
2023-06-14T13:48:52.083Z,2.20
2023-06-14T13:51:19.263Z,2.40
2023-06-14T13:53:47.360Z,2.20
2023-06-14T13:56:14.177Z,2.63
2023-06-14T13:58:41.047Z,2.47
2023-06-14T14:01:09.576Z,2.42
2023-06-14T14:03:37.253Z,2.40
2023-06-14T14:06:05.592Z,2.53
2023-06-14T14:08:32.512Z,2.47
2023-06-14T14:10:59.902Z,2.67
2023-06-14T14:13:26.693Z,2.30
2023-06-14T14:15:53.566Z,2.53
2023-06-14T14:18:21.975Z,2.50
2023-06-14T14:20:49.179Z,2.50
2023-06-14T14:23:16.178Z,2.25
2023-06-14T14:25:43.076Z,2.25
2023-06-14T14:28:09.947Z,2.30
2023-06-14T14:30:36.872Z,2.45
2023-06-14T14:33:03.796Z,2.30
2023-06-14T14:35:32.061Z,2.38
2023-06-14T14:37:59.033Z,2.00
2023-06-14T14:40:25.924Z,2.28
2023-06-14T14:42:52.731Z,2.50
2023-06-14T14:45:19.512Z,2.33
2023-06-14T14:47:46.378Z,2.35
2023-06-14T14:50:13.260Z,2.20
2023-06-14T14:52:41.577Z,2.17
2023-06-14T14:55:09.443Z,2.33
2023-06-14T14:57:36.298Z,2.35
2023-06-14T15:00:03.825Z,2.47
2023-06-14T15:02:30.719Z,2.25
2023-06-14T15:04:57.522Z,2.35
2023-06-14T15:07:24.387Z,2.47
2023-06-14T15:09:52.533Z,2.40
2023-06-14T15:12:19.295Z,2.30
2023-06-14T15:14:46.181Z,2.42
2023-06-14T15:17:13.042Z,2.30
2023-06-14T15:19:40.054Z,2.30
2023-06-14T15:22:07.303Z,2.03
2023-06-14T15:24:43.486Z,2.45
2023-06-14T15:27:13.143Z,2.67
2023-06-14T15:29:40.211Z,2.70
2023-06-14T15:32:08.305Z,2.33
2023-06-14T15:34:35.370Z,2.58
2023-06-14T15:37:02.358Z,2.35
2023-06-14T15:39:30.161Z,2.53
2023-06-14T15:41:57.026Z,2.65
2023-06-14T15:44:25.210Z,2.47
2023-06-14T15:46:52.404Z,2.58
2023-06-14T15:49:19.384Z,2.15
2023-06-14T15:51:46.312Z,2.10
2023-06-14T15:54:13.181Z,3.17
2023-06-14T15:56:40.070Z,2.60
2023-06-14T15:59:07.410Z,2.40
2023-06-14T16:01:35.700Z,2.50
2023-06-14T16:04:02.559Z,2.13
2023-06-14T16:06:29.418Z,2.35
2023-06-14T16:08:56.265Z,2.80
2023-06-14T16:11:23.203Z,2.55
2023-06-14T16:13:50.072Z,2.60
2023-06-14T16:16:16.917Z,2.38
2023-06-14T16:18:45.143Z,2.40
2023-06-14T16:21:11.984Z,2.42
2023-06-14T16:23:38.850Z,2.22
2023-06-14T16:26:05.791Z,2.22
2023-06-14T16:28:32.853Z,2.38
2023-06-14T16:30:59.706Z,2.40
2023-06-14T16:33:26.504Z,2.28
2023-06-14T16:35:54.703Z,2.50
2023-06-14T16:38:21.616Z,2.45
2023-06-14T16:40:48.565Z,2.20
2023-06-14T16:43:15.408Z,2.60
2023-06-14T16:45:42.219Z,2.00
2023-06-14T16:48:09.107Z,2.60
2023-06-14T16:50:37.678Z,2.40
2023-06-14T16:53:06.793Z,2.40
2023-06-14T16:55:33.622Z,2.50
2023-06-14T16:58:00.395Z,2.30
2023-06-14T17:00:27.324Z,2.60
2023-06-14T17:02:54.543Z,2.45
2023-06-14T17:05:21.850Z,2.08
2023-06-14T17:07:48.758Z,2.58
2023-06-14T17:10:17.172Z,2.20
2023-06-14T17:12:44.273Z,2.30
2023-06-14T17:15:11.599Z,2.50
2023-06-14T17:17:38.467Z,2.40
2023-06-14T17:20:06.658Z,2.45
2023-06-14T17:22:33.584Z,2.75
2023-06-14T17:25:00.463Z,2.50
2023-06-14T17:27:28.793Z,2.38
2023-06-14T17:29:55.588Z,2.10
2023-06-14T17:32:22.525Z,2.60
2023-06-14T17:34:49.350Z,2.38
2023-06-14T17:37:16.155Z,2.40
2023-06-14T17:39:43.093Z,2.60
2023-06-14T17:42:09.995Z,2.58
2023-06-14T17:44:38.251Z,2.33
2023-06-14T17:47:05.458Z,2.55
2023-06-14T17:49:32.309Z,2.60
2023-06-14T17:51:59.117Z,2.50
2023-06-14T17:54:25.910Z,2.40
2023-06-14T17:56:52.702Z,2.50
2023-06-14T17:59:19.608Z,2.35
2023-06-14T18:01:47.938Z,2.50
2023-06-14T18:04:15.015Z,2.80
2023-06-14T18:06:41.812Z,2.40
2023-06-14T18:09:08.580Z,2.40
2023-06-14T18:11:35.388Z,2.65
2023-06-14T18:14:02.245Z,2.63
2023-06-14T18:16:29.133Z,2.70
2023-06-14T18:18:57.385Z,3.20
2023-06-14T18:21:24.292Z,3.22
2023-06-14T18:23:51.427Z,2.78
2023-06-14T18:26:18.326Z,2.30
2023-06-14T18:28:45.292Z,2.45
2023-06-14T18:31:12.116Z,2.50
2023-06-14T18:33:38.983Z,2.67
2023-06-14T18:36:07.341Z,3.10
2023-06-14T18:38:34.182Z,2.47
2023-06-14T18:41:00.990Z,2.88
2023-06-14T18:43:27.786Z,2.90
2023-06-14T18:45:54.702Z,2.80
2023-06-14T18:48:21.676Z,2.83
2023-06-14T18:50:48.730Z,3.17
2023-06-14T18:53:17.026Z,2.95
2023-06-14T18:55:44.052Z,3.40
2023-06-14T18:58:10.890Z,2.72
2023-06-14T19:00:37.923Z,3.30
2023-06-14T19:03:04.944Z,2.80
2023-06-14T19:05:31.823Z,3.22
2023-06-14T19:07:58.791Z,3.40
2023-06-14T19:10:27.115Z,3.42
2023-06-14T19:12:54.004Z,3.10
2023-06-14T19:15:20.977Z,3.40
2023-06-14T19:17:57.631Z,3.67
2023-06-14T19:20:25.530Z,3.33
2023-06-14T19:22:52.625Z,3.20
2023-06-14T19:25:19.731Z,3.20
2023-06-14T19:27:48.886Z,2.90
2023-06-14T19:30:15.957Z,3.13
2023-06-14T19:32:42.820Z,3.33
2023-06-14T19:35:10.271Z,3.17
2023-06-14T19:37:40.287Z,3.47
2023-06-14T19:40:08.879Z,3.28
2023-06-14T19:42:35.719Z,3.30
2023-06-14T19:45:04.504Z,3.08
2023-06-14T19:47:31.395Z,3.33
2023-06-14T19:49:58.245Z,3.28
2023-06-14T19:52:25.044Z,3.20
2023-06-14T19:54:51.912Z,3.30
2023-06-14T19:57:18.731Z,3.28
2023-06-14T19:59:45.551Z,3.45
2023-06-14T20:02:13.769Z,3.40
2023-06-14T20:04:40.587Z,3.13
2023-06-14T20:07:07.447Z,3.60
2023-06-14T20:09:34.599Z,3.80
2023-06-14T20:12:02.070Z,3.20
2023-06-14T20:14:29.310Z,3.15
2023-06-14T20:16:56.801Z,3.38
2023-06-14T20:19:24.984Z,3.67
2023-06-14T20:21:51.880Z,3.40
2023-06-14T20:24:18.973Z,4.20
2023-06-14T20:26:45.901Z,3.63
2023-06-14T20:29:12.707Z,3.63
2023-06-14T20:31:39.543Z,3.67
2023-06-14T20:34:06.390Z,3.90
2023-06-14T20:36:34.563Z,3.97
2023-06-14T20:39:02.889Z,4.50
2023-06-14T20:41:29.757Z,3.75
2023-06-14T20:43:56.580Z,3.97
2023-06-14T20:46:23.495Z,3.55
2023-06-14T20:48:50.289Z,4.40
2023-06-14T20:51:17.112Z,4.00
2023-06-14T20:53:45.345Z,3.22
2023-06-14T20:56:13.157Z,3.20
2023-06-14T20:58:40.100Z,3.72
2023-06-14T21:01:06.941Z,3.17
2023-06-14T21:03:33.848Z,3.10
2023-06-14T21:06:01.431Z,3.30
2023-06-14T21:08:28.258Z,3.40
2023-06-14T21:10:56.412Z,2.90
2023-06-14T21:13:23.332Z,3.42
2023-06-14T21:15:50.372Z,3.47
2023-06-14T21:18:18.563Z,3.30
2023-06-14T21:20:45.427Z,3.00
2023-06-14T21:23:12.277Z,3.05
2023-06-14T21:25:40.153Z,3.45
2023-06-14T21:30:53.622Z,3.15
2023-06-14T21:39:08.091Z,3.00
2023-06-14T21:41:40.478Z,3.45
2023-06-14T21:44:15.687Z,2.88
2023-06-14T21:46:49.902Z,3.53
2023-06-14T21:49:20.520Z,3.63
2023-06-14T21:51:58.057Z,3.58
2023-06-14T21:54:27.321Z,2.95
2023-06-14T21:56:58.017Z,3.42
2023-06-14T21:59:25.560Z,3.30
2023-06-14T22:05:47.159Z,3.50
2023-06-14T22:08:23.131Z,2.97
2023-06-14T22:10:51.029Z,3.65
2023-06-14T22:13:20.942Z,3.47
2023-06-14T22:15:48.385Z,3.40
2023-06-14T22:18:19.045Z,3.38
2023-06-14T22:20:52.007Z,3.38
2023-06-14T22:23:21.579Z,3.65
2023-06-14T22:25:59.145Z,3.35
2023-06-14T22:28:30.722Z,3.05
2023-06-14T22:31:01.000Z,3.80
2023-06-14T22:33:28.484Z,3.55
2023-06-14T22:35:57.942Z,3.42
2023-06-14T22:38:39.168Z,3.28
2023-06-14T22:41:11.454Z,2.97
2023-06-14T22:43:45.503Z,3.42
2023-06-14T22:46:13.035Z,3.40
2023-06-14T22:48:42.306Z,3.60
2023-06-14T22:51:09.429Z,3.05
2023-06-14T22:53:40.469Z,3.47
2023-06-14T22:56:11.940Z,3.65
2023-06-14T22:58:40.021Z,3.25
2023-06-14T23:01:08.950Z,3.30
2023-06-14T23:03:36.416Z,3.40
2023-06-14T23:06:03.980Z,3.40
2023-06-14T23:11:16.900Z,3.25
2023-06-14T23:13:46.842Z,3.70
2023-06-14T23:16:14.024Z,3.30
2023-06-14T23:18:41.925Z,3.50
2023-06-14T23:21:08.971Z,3.47
2023-06-14T23:23:36.069Z,3.33
2023-06-14T23:26:03.351Z,3.53
2023-06-14T23:28:31.968Z,3.63
2023-06-14T23:30:58.925Z,3.58
2023-06-14T23:33:25.890Z,3.38
2023-06-14T23:35:53.194Z,3.40
2023-06-14T23:38:20.601Z,3.30
2023-06-14T23:40:47.592Z,3.97
2023-06-14T23:43:14.542Z,3.47
2023-06-14T23:45:43.348Z,3.35
2023-06-14T23:48:10.352Z,3.35
2023-06-14T23:50:37.643Z,3.45
2023-06-14T23:53:04.564Z,3.72
2023-06-14T23:55:31.645Z,3.40
2023-06-14T23:57:58.586Z,3.40
